createdAt,value
2022-08-23T00:00:13.956Z,6.4
2022-08-23T00:05:10.271Z,316.9
2022-08-23T00:10:00.407Z,322.1
2022-08-23T00:15:00.362Z,344.0
2022-08-23T00:20:00.386Z,31.8
2022-08-23T00:25:00.354Z,9.4
2022-08-23T00:30:00.369Z,339.1
2022-08-23T00:35:00.375Z,315.6
2022-08-23T00:40:00.917Z,315.0
2022-08-23T00:45:00.376Z,336.5
2022-08-23T00:50:00.359Z,6.1
2022-08-23T00:55:00.351Z,27.6
2022-08-23T01:00:00.411Z,34.4
2022-08-23T01:05:00.333Z,35.0
2022-08-23T01:10:03.588Z,35.5
2022-08-23T01:15:00.382Z,47.7
2022-08-23T01:20:01.715Z,42.7
2022-08-23T01:25:09.462Z,24.3
2022-08-23T01:30:00.417Z,352.4
2022-08-23T01:35:00.325Z,326.2
2022-08-23T01:40:00.724Z,294.6
2022-08-23T01:45:00.333Z,311.7
2022-08-23T01:50:00.386Z,318.2
2022-08-23T01:55:00.364Z,337.9
2022-08-23T02:00:00.483Z,326.5
2022-08-23T02:05:00.339Z,336.6
2022-08-23T02:10:03.121Z,319.1
2022-08-23T02:15:00.446Z,333.3
2022-08-23T02:20:00.346Z,359.5
2022-08-23T02:25:00.370Z,360.0
2022-08-23T02:30:02.415Z,335.5
2022-08-23T02:35:06.241Z,21.4
2022-08-23T02:40:00.816Z,33.9
2022-08-23T02:45:00.513Z,33.2
2022-08-23T02:50:00.428Z,37.5
2022-08-23T02:55:00.455Z,31.6
2022-08-23T03:00:00.493Z,17.9
2022-08-23T03:05:00.444Z,35.7
2022-08-23T03:10:00.473Z,33.1
2022-08-23T03:15:00.451Z,36.0
2022-08-23T03:20:00.452Z,53.3
2022-08-23T03:25:00.438Z,57.4
2022-08-23T03:30:01.158Z,51.7
2022-08-23T03:35:00.341Z,38.1
2022-08-23T03:40:00.795Z,45.0
2022-08-23T03:45:03.066Z,3.3
2022-08-23T03:50:00.345Z,294.8
2022-08-23T03:55:00.398Z,292.5
2022-08-23T04:00:00.336Z,334.9
2022-08-23T04:05:00.339Z,0.4
2022-08-23T04:10:00.359Z,40.9
2022-08-23T04:15:03.028Z,32.5
2022-08-23T04:20:00.343Z,4.0
2022-08-23T04:25:00.350Z,355.9
2022-08-23T04:30:00.396Z,345.6
2022-08-23T04:35:00.333Z,340.2
2022-08-23T04:40:00.820Z,344.3
2022-08-23T04:45:00.397Z,336.9
2022-08-23T04:50:00.376Z,354.7
2022-08-23T04:55:00.344Z,2.7
2022-08-23T05:00:00.479Z,347.4
2022-08-23T05:05:00.340Z,20.8
2022-08-23T05:10:00.396Z,2.0
2022-08-23T05:15:00.373Z,13.3
2022-08-23T05:20:00.369Z,12.9
2022-08-23T05:25:00.351Z,0.7
2022-08-23T05:30:00.391Z,7.3
2022-08-23T05:35:00.371Z,17.8
2022-08-23T05:40:00.586Z,353.5
2022-08-23T05:45:00.389Z,7.1
2022-08-23T05:50:00.351Z,11.0
2022-08-23T05:55:00.439Z,41.7
2022-08-23T06:00:00.369Z,29.8
2022-08-23T06:05:00.353Z,43.4
2022-08-23T06:10:00.349Z,50.5
2022-08-23T06:15:00.360Z,47.5
2022-08-23T06:20:00.717Z,49.9
2022-08-23T06:25:00.380Z,41.1
2022-08-23T06:30:00.443Z,38.5
2022-08-23T06:35:38.501Z,58.3
2022-08-23T06:40:00.823Z,37.6
2022-08-23T06:45:00.472Z,37.5
2022-08-23T06:50:00.737Z,40.4
2022-08-23T06:55:00.368Z,38.1
2022-08-23T07:00:00.450Z,37.0
2022-08-23T07:05:00.364Z,40.5
2022-08-23T07:10:00.405Z,50.0
2022-08-23T07:15:00.389Z,36.1
2022-08-23T07:20:00.466Z,41.8
2022-08-23T07:25:00.345Z,35.8
2022-08-23T07:30:00.449Z,32.1
2022-08-23T07:35:00.412Z,36.8
2022-08-23T07:40:00.724Z,32.8
2022-08-23T07:45:00.400Z,35.6
2022-08-23T07:50:00.403Z,38.2
2022-08-23T07:55:00.392Z,52.3
2022-08-23T08:00:00.432Z,50.0
2022-08-23T08:05:00.350Z,15.6
2022-08-23T08:10:00.405Z,34.7
2022-08-23T08:15:00.416Z,56.5
2022-08-23T08:20:00.406Z,38.3
2022-08-23T08:25:00.377Z,31.6
2022-08-23T08:30:00.402Z,33.0
2022-08-23T08:35:00.886Z,41.4
2022-08-23T08:40:00.682Z,35.9
2022-08-23T08:45:01.223Z,25.8
2022-08-23T08:50:00.389Z,13.4
2022-08-23T08:55:00.473Z,50.1
2022-08-23T09:00:00.458Z,13.6
2022-08-23T09:05:00.372Z,43.0
2022-08-23T09:10:00.445Z,31.2
2022-08-23T09:15:00.412Z,45.6
2022-08-23T09:20:00.516Z,41.3
2022-08-23T09:25:00.359Z,4.4
2022-08-23T09:30:00.419Z,45.5
2022-08-23T09:35:00.452Z,52.7
2022-08-23T09:40:00.696Z,55.8
2022-08-23T09:45:00.419Z,46.4
2022-08-23T09:50:00.362Z,51.5
2022-08-23T09:55:00.531Z,47.2
2022-08-23T10:00:00.443Z,49.3
2022-08-23T10:05:00.990Z,39.5
2022-08-23T10:10:02.442Z,37.8
2022-08-23T10:15:00.418Z,48.7
2022-08-23T10:20:00.426Z,6.3
2022-08-23T10:25:00.414Z,27.8
2022-08-23T10:30:00.452Z,13.3
2022-08-23T10:35:00.422Z,47.9
2022-08-23T10:40:04.940Z,39.1
2022-08-23T10:45:00.500Z,14.6
2022-08-23T10:50:00.446Z,36.3
2022-08-23T10:55:00.573Z,41.9
2022-08-23T11:00:00.438Z,31.6
2022-08-23T11:05:00.436Z,65.6
2022-08-23T11:10:02.302Z,36.3
2022-08-23T11:15:00.414Z,30.6
2022-08-23T11:20:00.428Z,351.4
2022-08-23T11:25:00.470Z,35.0
2022-08-23T11:30:00.369Z,6.0
2022-08-23T11:35:00.380Z,16.9
2022-08-23T11:40:01.006Z,15.2
2022-08-23T11:45:00.470Z,38.1
2022-08-23T11:50:00.553Z,19.0
2022-08-23T11:55:00.340Z,15.6
2022-08-23T12:00:00.403Z,33.1
2022-08-23T12:05:00.356Z,23.4
2022-08-23T12:10:00.492Z,52.7
2022-08-23T12:15:00.414Z,37.9
2022-08-23T12:20:00.432Z,42.0
2022-08-23T12:25:00.339Z,21.8
2022-08-23T12:30:00.428Z,44.7
2022-08-23T12:35:00.386Z,34.4
2022-08-23T12:40:00.707Z,38.4
2022-08-23T12:45:00.409Z,63.6
2022-08-23T12:50:00.397Z,65.4
2022-08-23T12:55:00.407Z,48.7
2022-08-23T13:00:18.800Z,40.6
2022-08-23T13:05:00.370Z,59.0
2022-08-23T13:10:00.452Z,72.9
2022-08-23T13:15:00.546Z,27.2
2022-08-23T13:20:00.419Z,46.1
2022-08-23T13:25:32.062Z,20.5
2022-08-23T13:30:00.676Z,21.4
2022-08-23T13:35:00.367Z,29.2
2022-08-23T13:40:00.794Z,36.0
2022-08-23T13:45:00.415Z,350.4
2022-08-23T13:50:00.413Z,331.3
2022-08-23T13:55:00.364Z,58.5
2022-08-23T14:00:00.431Z,31.2
2022-08-23T14:05:00.697Z,40.5
2022-08-23T14:10:00.444Z,53.9
2022-08-23T14:15:00.402Z,62.9
2022-08-23T14:20:43.218Z,57.2
2022-08-23T14:25:01.417Z,46.9
2022-08-23T14:30:00.823Z,47.1
2022-08-23T14:35:00.347Z,50.5
2022-08-23T14:40:01.018Z,41.8
2022-08-23T14:45:00.401Z,56.1
2022-08-23T14:50:00.575Z,62.8
2022-08-23T14:55:00.401Z,61.3
2022-08-23T15:00:00.905Z,59.7
2022-08-23T15:05:00.389Z,49.6
2022-08-23T15:10:00.405Z,50.7
2022-08-23T15:15:00.406Z,49.2
2022-08-23T15:20:00.379Z,59.1
2022-08-23T15:25:00.495Z,54.2
2022-08-23T15:30:00.472Z,48.7
2022-08-23T15:35:00.796Z,49.6
2022-08-23T15:40:00.793Z,65.5
2022-08-23T15:45:00.493Z,57.0
2022-08-23T15:50:00.350Z,60.0
2022-08-23T15:55:00.354Z,58.3
2022-08-23T16:00:00.417Z,62.7
2022-08-23T16:05:00.348Z,72.3
2022-08-23T16:10:00.337Z,51.0
2022-08-23T16:15:00.400Z,39.9
2022-08-23T16:20:00.360Z,49.0
2022-08-23T16:25:00.405Z,45.2
2022-08-23T16:35:00.364Z,50.7
2022-08-23T16:40:00.788Z,49.1
2022-08-23T16:45:00.333Z,26.3
2022-08-23T16:50:00.395Z,31.1
2022-08-23T16:55:00.368Z,8.5
2022-08-23T17:00:00.423Z,41.8
2022-08-23T17:05:00.363Z,36.8
2022-08-23T17:10:00.389Z,34.1
2022-08-23T17:15:00.360Z,67.3
2022-08-23T17:20:00.395Z,46.4
2022-08-23T17:25:00.317Z,46.2
2022-08-23T17:30:00.374Z,43.0
2022-08-23T17:35:00.309Z,61.2
2022-08-23T17:40:00.761Z,68.6
2022-08-23T17:45:00.380Z,59.5
2022-08-23T17:50:00.354Z,67.2
2022-08-23T17:55:01.339Z,63.4
2022-08-23T18:00:00.436Z,62.4
2022-08-23T18:05:00.602Z,50.4
2022-08-23T18:10:00.613Z,54.9
2022-08-23T18:15:00.351Z,72.5
2022-08-23T18:20:00.377Z,47.6
2022-08-23T18:25:00.373Z,58.1
2022-08-23T18:30:00.393Z,23.7
2022-08-23T18:35:00.379Z,22.5
2022-08-23T18:40:00.581Z,22.5
2022-08-23T18:45:00.363Z,33.9
2022-08-23T18:50:00.533Z,44.9
2022-08-23T18:55:00.379Z,45.0
2022-08-23T19:00:00.394Z,45.0
2022-08-23T19:05:00.432Z,45.0
2022-08-23T19:10:00.346Z,34.9
2022-08-23T19:15:00.356Z,29.3
2022-08-23T19:20:00.348Z,44.9
2022-08-23T19:25:00.354Z,25.9
2022-08-23T19:30:00.384Z,2.4
2022-08-23T19:35:00.329Z,0.0
2022-08-23T19:40:00.609Z,0.0
2022-08-23T19:45:00.372Z,0.0
2022-08-23T19:50:00.352Z,20.6
2022-08-23T19:55:07.731Z,35.6
2022-08-23T20:00:00.348Z,38.7
2022-08-23T20:05:00.384Z,36.0
2022-08-23T20:10:00.465Z,40.8
2022-08-23T20:15:00.410Z,31.5
2022-08-23T20:20:00.430Z,22.6
2022-08-23T20:25:00.381Z,34.2
2022-08-23T20:30:00.442Z,41.6
2022-08-23T20:35:00.356Z,23.0
2022-08-23T20:40:00.839Z,34.8
2022-08-23T20:45:00.380Z,41.7
2022-08-23T20:50:00.398Z,25.0
2022-08-23T20:55:00.354Z,34.4
2022-08-23T21:00:00.445Z,24.9
2022-08-23T21:05:00.316Z,23.6
2022-08-23T21:10:00.524Z,31.3
2022-08-23T21:15:00.361Z,46.3
2022-08-23T21:20:00.366Z,52.8
2022-08-23T21:25:00.389Z,48.5
2022-08-23T21:30:00.375Z,52.0
2022-08-23T21:35:00.376Z,41.4
2022-08-23T21:40:00.640Z,46.6
2022-08-23T21:45:03.092Z,42.9
2022-08-23T21:50:00.355Z,45.8
2022-08-23T21:55:00.358Z,45.0
2022-08-23T22:00:00.431Z,67.2
2022-08-23T22:05:00.326Z,46.5
2022-08-23T22:10:00.344Z,66.2
2022-08-23T22:15:00.406Z,67.1
2022-08-23T22:20:00.374Z,67.5
2022-08-23T22:25:00.384Z,67.5
2022-08-23T22:30:00.381Z,67.5
2022-08-23T22:35:00.375Z,67.5
2022-08-23T22:40:00.804Z,67.5
2022-08-23T22:45:00.360Z,67.5
2022-08-23T22:50:00.351Z,67.5
2022-08-23T22:55:00.367Z,67.5
2022-08-23T23:00:00.588Z,67.5
2022-08-23T23:05:00.383Z,67.5
2022-08-23T23:10:00.325Z,67.5
2022-08-23T23:15:00.380Z,67.5
2022-08-23T23:20:00.300Z,67.5
2022-08-23T23:25:00.319Z,67.5
2022-08-23T23:30:00.433Z,67.5
2022-08-23T23:35:01.130Z,67.5
2022-08-23T23:40:00.814Z,67.5
2022-08-23T23:45:00.404Z,45.4
2022-08-23T23:50:00.381Z,45.0
2022-08-23T23:55:00.359Z,339.3
